Time;durP1;ratioP1;P1;durP2;ratioP2;P2;SDS_P1;SDS_P2;PMS_P1;PMS_P2;Temp;Humidity;BMP_temperature;BMP_pressure;BME280_temperature;BME280_humidity;BME280_pressure;Samples;Min_cycle;Max_cycle;Signal;HPM_P1;HPM_P2
2021/05/27 00:01:18;;;;;;;0.70;0.60;;;;;;;;;;4973895;28;20022;-12
2021/05/27 00:03:43;;;;;;;6.85;0.90;;;;;;;;;;4973507;28;20381;-12
2021/05/27 00:06:09;;;;;;;1.65;0.75;;;;;;;;;;4973556;28;20056;-12
2021/05/27 00:08:34;;;;;;;5.03;0.80;;;;;;;;;;4973868;28;20054;-12
2021/05/27 00:11:00;;;;;;;1.30;0.80;;;;;;;;;;4973533;28;20355;-12
2021/05/27 00:13:25;;;;;;;1.00;0.90;;;;;;;;;;4973739;28;20058;-12
2021/05/27 00:15:50;;;;;;;2.28;0.90;;;;;;;;;;4972106;28;20397;-12
2021/05/27 00:18:16;;;;;;;2.78;0.95;;;;;;;;;;4972149;28;20023;-12
2021/05/27 00:20:41;;;;;;;4.78;1.17;;;;;;;;;;4973747;28;20106;-12
2021/05/27 00:23:07;;;;;;;4.03;0.98;;;;;;;;;;4973278;28;20015;-12
2021/05/27 00:25:32;;;;;;;4.18;0.70;;;;;;;;;;4973368;28;20030;-12
2021/05/27 00:27:57;;;;;;;3.58;0.75;;;;;;;;;;4972073;28;20023;-11
2021/05/27 00:30:23;;;;;;;1.75;1.00;;;;;;;;;;4973514;28;20031;-12
2021/05/27 00:32:49;;;;;;;2.75;0.80;;;;;;;;;;4973986;28;20389;-12
2021/05/27 00:35:14;;;;;;;2.72;0.93;;;;;;;;;;4975601;28;20055;-12
2021/05/27 00:37:40;;;;;;;3.92;1.20;;;;;;;;;;4977339;28;20030;-12
2021/05/27 00:40:06;;;;;;;3.15;1.13;;;;;;;;;;4976942;28;20026;-12
2021/05/27 00:42:32;;;;;;;2.55;1.20;;;;;;;;;;4977214;28;20027;-12
2021/05/27 00:45:08;;;;;;;1.17;1.00;;;;;;;;;;4976875;28;20470;-12
2021/05/27 00:47:34;;;;;;;1.55;0.95;;;;;;;;;;4959495;28;20444;-12
2021/05/27 00:50:00;;;;;;;4.28;1.08;;;;;;;;;;4977038;28;20023;-11
2021/05/27 00:52:25;;;;;;;2.10;1.23;;;;;;;;;;4975415;28;20039;-12
2021/05/27 00:54:53;;;;;;;2.55;1.02;;;;;;;;;;4975346;28;20022;-12
2021/05/27 00:57:30;;;;;;;3.22;0.80;;;;;;;;;;4976987;28;20038;-11
2021/05/27 00:59:56;;;;;;;2.05;1.10;;;;;;;;;;4976536;28;20034;-12
2021/05/27 01:02:21;;;;;;;2.47;0.70;;;;;;;;;;4976522;28;20030;-12
2021/05/27 01:04:48;;;;;;;2.88;1.10;;;;;;;;;;4975207;28;20027;-12
2021/05/27 01:07:14;;;;;;;1.30;0.77;;;;;;;;;;4976510;28;20351;-12
2021/05/27 01:09:41;;;;;;;1.60;0.98;;;;;;;;;;4976721;28;20050;-12
2021/05/27 01:12:07;;;;;;;5.93;0.93;;;;;;;;;;4976265;28;20030;-12
2021/05/27 01:17:16;;;;;;;1.58;1.02;;;;;;;;;;4976547;28;20042;-12
2021/05/27 01:19:41;;;;;;;3.40;1.10;;;;;;;;;;4976405;28;20362;-12
2021/05/27 01:22:06;;;;;;;1.38;1.13;;;;;;;;;;4976108;28;20062;-12
2021/05/27 01:24:34;;;;;;;3.60;1.02;;;;;;;;;;4976222;28;20378;-12
2021/05/27 01:27:00;;;;;;;2.38;1.08;;;;;;;;;;4976107;28;20034;-12
2021/05/27 01:29:25;;;;;;;1.27;0.90;;;;;;;;;;4974802;28;20019;-12
2021/05/27 01:31:51;;;;;;;1.23;1.05;;;;;;;;;;4974693;28;20049;-12
2021/05/27 01:34:17;;;;;;;3.10;0.95;;;;;;;;;;4974519;28;20039;-11
2021/05/27 01:36:45;;;;;;;3.28;1.00;;;;;;;;;;4974734;28;20115;-12
2021/05/27 01:39:11;;;;;;;1.48;1.02;;;;;;;;;;4976011;28;20027;-12
2021/05/27 01:41:38;;;;;;;2.80;1.15;;;;;;;;;;4975955;28;20062;-12
2021/05/27 01:44:03;;;;;;;1.38;1.17;;;;;;;;;;4975687;28;20027;-12
2021/05/27 01:46:29;;;;;;;2.05;1.08;;;;;;;;;;4974527;28;20481;-12
2021/05/27 01:48:54;;;;;;;3.35;1.25;;;;;;;;;;4974559;28;20015;-12
2021/05/27 01:51:20;;;;;;;1.02;0.90;;;;;;;;;;4974289;28;20138;-12
2021/05/27 01:53:46;;;;;;;1.85;0.90;;;;;;;;;;4974304;28;20027;-12
2021/05/27 01:56:12;;;;;;;3.17;1.42;;;;;;;;;;4975769;28;20077;-12
2021/05/27 01:58:38;;;;;;;5.50;1.67;;;;;;;;;;4975616;28;20520;-12
2021/05/27 02:01:05;;;;;;;1.10;0.93;;;;;;;;;;4975740;28;20045;-12
2021/05/27 02:03:35;;;;;;;1.33;0.90;;;;;;;;;;4975534;28;20018;-12
2021/05/27 02:06:12;;;;;;;1.48;1.25;;;;;;;;;;4975430;28;20046;-12
2021/05/27 02:09:06;;;;;;;3.63;1.15;;;;;;;;;;4975732;28;20030;-12
2021/05/27 02:11:24;;;;;;;4.70;0.90;;;;;;;;;;4974002;28;20097;-12
2021/05/27 02:13:50;;;;;;;2.40;1.10;;;;;;;;;;4973789;28;20477;-12
2021/05/27 02:16:15;;;;;;;1.50;1.17;;;;;;;;;;4973964;28;20165;-12
2021/05/27 02:18:41;;;;;;;3.42;1.25;;;;;;;;;;4973965;28;20030;-12
2021/05/27 02:21:06;;;;;;;2.00;0.95;;;;;;;;;;4975053;28;20030;-12
2021/05/27 02:23:31;;;;;;;7.00;1.77;;;;;;;;;;4975148;28;20026;-12
2021/05/27 02:26:07;;;;;;;2.33;0.98;;;;;;;;;;4975214;28;20029;-12
2021/05/27 02:28:46;;;;;;;1.63;1.10;;;;;;;;;;4975020;28;20037;-12
2021/05/27 02:31:13;;;;;;;1.08;0.77;;;;;;;;;;4974837;28;20500;-12
2021/05/27 02:33:44;;;;;;;2.17;1.33;;;;;;;;;;4957983;28;20051;-12
2021/05/27 02:36:19;;;;;;;2.55;1.23;;;;;;;;;;4973440;28;20027;-12
2021/05/27 02:38:45;;;;;;;1.08;0.85;;;;;;;;;;4973621;28;20105;-12
2021/05/27 02:41:14;;;;;;;1.55;1.30;;;;;;;;;;4973488;28;20023;-12
2021/05/27 02:43:40;;;;;;;2.28;1.08;;;;;;;;;;4973422;28;20053;-12
2021/05/27 02:46:09;;;;;;;2.30;1.33;;;;;;;;;;4973365;28;20114;-11
2021/05/27 02:48:35;;;;;;;1.33;1.00;;;;;;;;;;4973336;28;20073;-12
2021/05/27 02:51:02;;;;;;;1.23;1.05;;;;;;;;;;4974790;28;20045;-12
2021/05/27 02:53:28;;;;;;;1.27;1.13;;;;;;;;;;4973241;28;20026;-12
2021/05/27 02:55:54;;;;;;;3.83;1.42;;;;;;;;;;4973784;28;20026;-12
2021/05/27 02:58:20;;;;;;;1.85;1.10;;;;;;;;;;4973180;28;20390;-19
2021/05/27 03:00:46;;;;;;;1.08;0.93;;;;;;;;;;4974441;28;20023;-12
2021/05/27 03:03:21;;;;;;;7.78;1.25;;;;;;;;;;4973000;28;20066;-12
2021/05/27 03:05:47;;;;;;;2.38;1.20;;;;;;;;;;4974395;28;20046;-12
2021/05/27 03:08:15;;;;;;;1.85;1.48;;;;;;;;;;4973076;28;20030;-12
2021/05/27 03:10:41;;;;;;;1.55;1.05;;;;;;;;;;4972865;28;20552;-12
2021/05/27 03:13:07;;;;;;;3.03;1.25;;;;;;;;;;4973119;28;20050;-12
2021/05/27 03:15:35;;;;;;;1.33;0.88;;;;;;;;;;4972937;28;20030;-12
2021/05/27 03:18:02;;;;;;;5.25;2.13;;;;;;;;;;4974282;28;20023;-12
2021/05/27 03:20:27;;;;;;;4.22;1.90;;;;;;;;;;4972837;28;20062;-12
2021/05/27 03:22:53;;;;;;;3.25;1.95;;;;;;;;;;4974023;28;20066;-12
2021/05/27 03:25:18;;;;;;;6.13;2.10;;;;;;;;;;4974003;28;20035;-12
2021/05/27 03:27:46;;;;;;;2.85;1.60;;;;;;;;;;4974296;28;20022;-12
2021/05/27 03:30:12;;;;;;;6.10;1.80;;;;;;;;;;4973778;28;20141;-12
2021/05/27 03:32:38;;;;;;;8.23;1.88;;;;;;;;;;4972576;28;20046;-12
2021/05/27 03:35:04;;;;;;;6.88;1.90;;;;;;;;;;4973733;28;20042;-12
2021/05/27 03:37:30;;;;;;;4.30;2.00;;;;;;;;;;4974097;28;20038;-12
2021/05/27 03:40:13;;;;;;;1.27;1.05;;;;;;;;;;4974120;28;20024;-12
2021/05/27 03:42:40;;;;;;;2.88;1.13;;;;;;;;;;4972541;28;20041;-12
2021/05/27 03:45:09;;;;;;;2.05;1.40;;;;;;;;;;4973789;28;20030;-12
2021/05/27 03:47:39;;;;;;;;;;;;;;;;;;4972922;28;20031;-12
2021/05/27 03:50:06;;;;;;;6.10;1.23;;;;;;;;;;4988605;28;20372;-12
2021/05/27 03:52:32;;;;;;;1.98;1.25;;;;;;;;;;4972275;28;20046;-12
2021/05/27 03:54:57;;;;;;;1.38;1.20;;;;;;;;;;4972411;28;20540;-12
2021/05/27 03:57:23;;;;;;;1.60;1.15;;;;;;;;;;4973766;28;20500;-13
2021/05/27 04:02:48;;;;;;;3.38;1.38;;;;;;;;;;4973908;28;20035;-12
2021/05/27 04:08:13;;;;;;;2.50;1.40;;;;;;;;;;4976738;28;20030;-12
2021/05/27 04:10:39;;;;;;;2.05;1.25;;;;;;;;;;4976253;28;20110;-12
2021/05/27 04:13:04;;;;;;;2.75;1.45;;;;;;;;;;4977575;28;20109;-12
2021/05/27 04:15:32;;;;;;;2.55;1.00;;;;;;;;;;4977777;28;20421;-12
2021/05/27 04:17:57;;;;;;;1.65;1.33;;;;;;;;;;4977654;28;20031;-12
2021/05/27 04:20:24;;;;;;;3.92;1.35;;;;;;;;;;4977359;28;20354;-13
2021/05/27 04:22:50;;;;;;;2.38;1.15;;;;;;;;;;4977233;28;20063;-12
2021/05/27 04:25:16;;;;;;;1.80;1.10;;;;;;;;;;4977270;28;20051;-12
2021/05/27 04:27:43;;;;;;;4.45;1.38;;;;;;;;;;4977487;28;20446;-12
2021/05/27 04:30:16;;;;;;;3.33;1.38;;;;;;;;;;4977182;28;20046;-12
2021/05/27 04:35:29;;;;;;;5.80;1.25;;;;;;;;;;4976924;28;19918;-12
2021/05/27 04:37:56;;;;;;;5.82;1.40;;;;;;;;;;4977254;28;20074;-12
2021/05/27 04:40:22;;;;;;;2.53;1.13;;;;;;;;;;4977061;28;20081;-12
2021/05/27 04:42:47;;;;;;;1.80;1.35;;;;;;;;;;4975623;28;20030;-12
2021/05/27 04:45:13;;;;;;;4.05;1.33;;;;;;;;;;4976912;28;20122;-12
2021/05/27 04:47:39;;;;;;;3.00;1.55;;;;;;;;;;4975591;28;20105;-12
2021/05/27 04:50:05;;;;;;;2.90;1.33;;;;;;;;;;4976728;28;20045;-12
2021/05/27 04:52:30;;;;;;;2.33;1.50;;;;;;;;;;4976975;28;20030;-12
2021/05/27 04:54:56;;;;;;;2.30;1.30;;;;;;;;;;4976700;28;20023;-12
2021/05/27 04:57:21;;;;;;;2.28;1.10;;;;;;;;;;4977013;28;20058;-12
2021/05/27 04:59:47;;;;;;;1.13;0.93;;;;;;;;;;4976609;28;20367;-12
2021/05/27 05:02:12;;;;;;;1.95;1.23;;;;;;;;;;4976791;28;20023;-12
2021/05/27 05:04:37;;;;;;;2.53;1.30;;;;;;;;;;4976537;28;20440;-12
2021/05/27 05:07:03;;;;;;;1.58;1.10;;;;;;;;;;4976469;28;20054;-11
2021/05/27 05:09:28;;;;;;;1.88;1.60;;;;;;;;;;4975188;28;20082;-12
2021/05/27 05:11:53;;;;;;;1.38;1.17;;;;;;;;;;4976337;28;20489;-12
2021/05/27 05:14:19;;;;;;;2.50;1.33;;;;;;;;;;4976359;28;20050;-11
2021/05/27 05:16:44;;;;;;;2.28;1.50;;;;;;;;;;4976422;28;20023;-12
2021/05/27 05:19:10;;;;;;;0.98;0.80;;;;;;;;;;4975705;28;20549;-12
2021/05/27 05:21:35;;;;;;;1.90;0.93;;;;;;;;;;4976639;28;20476;-12
2021/05/27 05:24:00;;;;;;;5.82;0.93;;;;;;;;;;4976337;28;20114;-14
2021/05/27 05:26:26;;;;;;;2.20;1.10;;;;;;;;;;4976416;28;20484;-12
2021/05/27 05:28:51;;;;;;;1.45;1.35;;;;;;;;;;4976410;28;20030;-12
2021/05/27 05:31:17;;;;;;;1.33;1.15;;;;;;;;;;4976250;28;20026;-12
2021/05/27 05:33:43;;;;;;;2.78;1.33;;;;;;;;;;4975882;28;20050;-12
2021/05/27 05:36:08;;;;;;;6.25;1.30;;;;;;;;;;4976390;28;20042;-11
2021/05/27 05:38:34;;;;;;;0.90;0.82;;;;;;;;;;4975879;28;20035;-12
2021/05/27 05:40:59;;;;;;;3.00;1.88;;;;;;;;;;4976159;28;20074;-12
2021/05/27 05:43:25;;;;;;;3.05;1.10;;;;;;;;;;4976155;28;20026;-12
2021/05/27 05:45:50;;;;;;;2.65;1.70;;;;;;;;;;4975749;28;20520;-12
2021/05/27 05:48:16;;;;;;;1.83;1.40;;;;;;;;;;4974695;28;20030;-11
2021/05/27 05:50:48;;;;;;;5.05;1.35;;;;;;;;;;4974370;28;20054;-11
2021/05/27 05:53:15;;;;;;;1.33;1.15;;;;;;;;;;4975868;28;20054;-12
2021/05/27 05:55:41;;;;;;;4.35;1.40;;;;;;;;;;4975911;28;20046;-11
2021/05/27 05:58:07;;;;;;;1.75;1.05;;;;;;;;;;4974362;28;20400;-11
2021/05/27 06:00:32;;;;;;;2.30;1.15;;;;;;;;;;4975853;28;20018;-12
2021/05/27 06:02:58;;;;;;;2.60;1.30;;;;;;;;;;4975431;28;20108;-12
2021/05/27 06:05:42;;;;;;;2.55;1.20;;;;;;;;;;4975863;28;20142;-11
2021/05/27 06:08:20;;;;;;;2.50;1.42;;;;;;;;;;4974219;28;20069;-11
2021/05/27 06:10:45;;;;;;;1.73;1.13;;;;;;;;;;4975371;28;20054;-12
2021/05/27 06:13:11;;;;;;;2.15;1.13;;;;;;;;;;4975513;28;20101;-11
2021/05/27 06:15:37;;;;;;;3.38;1.25;;;;;;;;;;4975562;28;20469;-11
2021/05/27 06:18:02;;;;;;;2.47;1.52;;;;;;;;;;4975260;28;20018;-12
2021/05/27 06:20:29;;;;;;;2.08;1.13;;;;;;;;;;4975505;28;20065;-12
2021/05/27 06:22:58;;;;;;;3.90;1.60;;;;;;;;;;4973714;28;20019;-12
2021/05/27 06:25:24;;;;;;;1.70;1.10;;;;;;;;;;4975428;28;20480;-11
2021/05/27 06:27:50;;;;;;;2.00;1.50;;;;;;;;;;4975109;28;20573;-12
2021/05/27 06:30:15;;;;;;;5.82;1.80;;;;;;;;;;4974255;28;20027;-12
2021/05/27 06:32:41;;;;;;;3.88;1.38;;;;;;;;;;4974702;28;20038;-12
2021/05/27 06:35:08;;;;;;;3.85;1.27;;;;;;;;;;4974726;28;20043;-11
2021/05/27 06:37:37;;;;;;;2.33;1.38;;;;;;;;;;4974828;28;20042;-11
2021/05/27 06:40:04;;;;;;;4.70;1.40;;;;;;;;;;4973552;28;20030;-11
2021/05/27 06:42:29;;;;;;;3.70;1.35;;;;;;;;;;4974996;28;20023;-11
2021/05/27 06:44:55;;;;;;;3.45;1.20;;;;;;;;;;4974977;28;20038;-12
2021/05/27 06:47:20;;;;;;;1.85;1.02;;;;;;;;;;4974979;28;20413;-11
2021/05/27 06:49:46;;;;;;;4.15;1.80;;;;;;;;;;4974544;28;20031;-12
2021/05/27 06:52:11;;;;;;;5.88;1.90;;;;;;;;;;4974761;28;20114;-12
2021/05/27 06:54:36;;;;;;;2.92;1.17;;;;;;;;;;4974783;28;20453;-12
2021/05/27 06:57:02;;;;;;;4.15;1.13;;;;;;;;;;4974764;28;20022;-12
2021/05/27 06:59:28;;;;;;;1.63;1.25;;;;;;;;;;4974516;28;20027;-12
2021/05/27 07:01:53;;;;;;;2.53;1.83;;;;;;;;;;4974278;28;20069;-11
2021/05/27 07:04:18;;;;;;;2.40;1.17;;;;;;;;;;4973082;28;20023;-12
2021/05/27 07:06:44;;;;;;;3.03;1.13;;;;;;;;;;4974362;28;20118;-12
2021/05/27 07:09:11;;;;;;;2.15;1.00;;;;;;;;;;4974262;28;20117;-12
2021/05/27 07:11:36;;;;;;;1.67;1.30;;;;;;;;;;4974493;28;20039;-12
2021/05/27 07:14:01;;;;;;;3.70;1.30;;;;;;;;;;4974346;28;20381;-12
2021/05/27 07:16:27;;;;;;;2.88;1.25;;;;;;;;;;4974211;28;20517;-19
2021/05/27 07:18:53;;;;;;;4.18;1.98;;;;;;;;;;4974076;28;20477;-12
2021/05/27 07:21:19;;;;;;;1.67;1.40;;;;;;;;;;4974155;28;20050;-12
2021/05/27 07:23:44;;;;;;;1.20;1.10;;;;;;;;;;4974159;28;20030;-12
2021/05/27 07:26:09;;;;;;;2.13;1.45;;;;;;;;;;4973940;28;20065;-11
2021/05/27 07:28:35;;;;;;;1.55;1.42;;;;;;;;;;4974128;28;20054;-11
2021/05/27 07:31:00;;;;;;;2.45;1.50;;;;;;;;;;4974136;28;20457;-12
2021/05/27 07:33:26;;;;;;;3.75;1.25;;;;;;;;;;4973649;28;20129;-12
2021/05/27 07:35:51;;;;;;;2.97;1.50;;;;;;;;;;4973900;28;20118;-12
2021/05/27 07:38:17;;;;;;;3.00;1.27;;;;;;;;;;4973866;28;20055;-12
2021/05/27 07:40:42;;;;;;;1.65;1.55;;;;;;;;;;4974136;28;20099;-12
2021/05/27 07:43:08;;;;;;;4.78;2.05;;;;;;;;;;4972269;28;20081;-12
2021/05/27 07:45:33;;;;;;;3.70;1.20;;;;;;;;;;4972498;28;20018;-12
2021/05/27 07:47:59;;;;;;;3.17;1.77;;;;;;;;;;4973700;28;20432;-12
2021/05/27 07:50:24;;;;;;;2.05;1.65;;;;;;;;;;4973811;28;20094;-12
2021/05/27 07:52:52;;;;;;;2.65;1.40;;;;;;;;;;4972584;28;20058;-12
2021/05/27 07:55:18;;;;;;;2.80;1.90;;;;;;;;;;4973922;28;20041;-11
2021/05/27 07:57:44;;;;;;;2.00;1.80;;;;;;;;;;4973700;28;20449;-12
2021/05/27 08:00:10;;;;;;;4.25;1.92;;;;;;;;;;4973646;28;20556;-12
2021/05/27 08:02:38;;;;;;;3.53;1.55;;;;;;;;;;4973821;28;20042;-11
2021/05/27 08:05:04;;;;;;;1.55;1.33;;;;;;;;;;4973858;28;20432;-12
2021/05/27 08:07:30;;;;;;;2.53;1.25;;;;;;;;;;4973652;28;20074;-11
2021/05/27 08:09:55;;;;;;;1.45;1.35;;;;;;;;;;4973448;28;20362;-11
2021/05/27 08:12:20;;;;;;;3.65;1.80;;;;;;;;;;4972224;28;20039;-11
2021/05/27 08:14:46;;;;;;;2.50;1.50;;;;;;;;;;4973455;28;20488;-12
2021/05/27 08:17:11;;;;;;;4.78;1.75;;;;;;;;;;4973705;28;20054;-11
2021/05/27 08:19:37;;;;;;;6.63;3.05;;;;;;;;;;4973496;28;20030;-11
2021/05/27 08:22:03;;;;;;;3.90;1.70;;;;;;;;;;4973210;28;20038;-11
2021/05/27 08:24:28;;;;;;;3.50;1.15;;;;;;;;;;4972230;28;20026;-13
2021/05/27 08:26:53;;;;;;;3.92;1.75;;;;;;;;;;4973323;28;20030;-12
2021/05/27 08:29:19;;;;;;;5.70;2.05;;;;;;;;;;4973401;28;20015;-11
2021/05/27 08:31:44;;;;;;;4.97;1.77;;;;;;;;;;4973285;28;20137;-11
2021/05/27 08:34:10;;;;;;;1.52;1.05;;;;;;;;;;4973255;28;20125;-12
2021/05/27 08:36:36;;;;;;;1.58;1.00;;;;;;;;;;4973321;28;20046;-12
2021/05/27 08:39:03;;;;;;;2.45;1.30;;;;;;;;;;4973294;28;20035;-12
2021/05/27 08:41:28;;;;;;;5.10;1.60;;;;;;;;;;4973343;28;20055;-12
2021/05/27 08:43:54;;;;;;;3.03;1.85;;;;;;;;;;4973140;28;20065;-11
2021/05/27 08:46:22;;;;;;;2.90;1.33;;;;;;;;;;4973493;28;20055;-12
2021/05/27 08:48:47;;;;;;;4.53;1.30;;;;;;;;;;4973522;28;20022;-12
2021/05/27 08:51:13;;;;;;;3.83;1.70;;;;;;;;;;4973218;28;20477;-12
2021/05/27 08:53:39;;;;;;;3.00;1.40;;;;;;;;;;4972170;28;20114;-11
2021/05/27 08:56:04;;;;;;;2.42;1.58;;;;;;;;;;4976755;28;20022;-12
2021/05/27 08:58:30;;;;;;;7.00;1.95;;;;;;;;;;4976953;28;20045;-11
2021/05/27 09:00:55;;;;;;;7.90;1.10;;;;;;;;;;4976637;28;20042;-12
2021/05/27 09:03:21;;;;;;;2.13;1.40;;;;;;;;;;4976897;28;20015;-12
2021/05/27 09:05:57;;;;;;;1.80;1.30;;;;;;;;;;4976585;28;20038;-11
2021/05/27 09:08:29;;;;;;;4.57;1.63;;;;;;;;;;4976672;28;20038;-12
2021/05/27 09:11:00;;;;;;;3.10;1.48;;;;;;;;;;4976599;28;20042;-11
2021/05/27 09:13:25;;;;;;;3.65;1.80;;;;;;;;;;4976689;28;20409;-11
2021/05/27 09:15:51;;;;;;;2.90;1.80;;;;;;;;;;4976442;28;20030;-11
2021/05/27 09:18:29;;;;;;;3.03;1.92;;;;;;;;;;4975047;28;20046;-12
2021/05/27 09:20:55;;;;;;;4.38;2.85;;;;;;;;;;4976238;28;20035;-11
2021/05/27 09:23:21;;;;;;;3.30;2.72;;;;;;;;;;4975063;28;20022;-12
2021/05/27 09:26:07;;;;;;;8.10;3.53;;;;;;;;;;4976096;28;20117;-12
2021/05/27 09:28:32;;;;;;;4.72;2.42;;;;;;;;;;4975923;28;20047;-11
2021/05/27 09:30:59;;;;;;;9.25;3.10;;;;;;;;;;4975978;28;20037;-11
2021/05/27 09:33:48;;;;;;;9.38;5.38;;;;;;;;;;4974554;28;20154;-12
2021/05/27 09:36:15;;;;;;;10.90;5.13;;;;;;;;;;4968106;28;20389;-12
2021/05/27 09:39:00;;;;;;;10.05;4.82;;;;;;;;;;4976032;28;20391;-11
2021/05/27 09:41:27;;;;;;;7.10;4.68;;;;;;;;;;4975565;28;20054;-12
2021/05/27 09:43:52;;;;;;;12.70;5.30;;;;;;;;;;4974917;28;20473;-12
2021/05/27 09:46:18;;;;;;;8.27;3.92;;;;;;;;;;4976128;28;20070;-12
2021/05/27 09:48:44;;;;;;;13.85;5.75;;;;;;;;;;4974880;28;20026;-12
2021/05/27 09:51:11;;;;;;;4.07;2.47;;;;;;;;;;4975675;28;20143;-12
2021/05/27 09:53:36;;;;;;;9.85;3.15;;;;;;;;;;4975919;28;20027;-12
2021/05/27 09:56:06;;;;;;;9.05;4.20;;;;;;;;;;4975537;28;20042;-12
2021/05/27 09:58:31;;;;;;;0.10;0.10;;;;;;;;;;4975713;28;20041;-12
2021/05/27 10:00:57;;;;;;;11.57;4.95;;;;;;;;;;4975526;28;20039;-12
2021/05/27 10:03:33;;;;;;;11.85;5.75;;;;;;;;;;4975763;28;20046;-12
2021/05/27 10:05:59;;;;;;;4.95;2.63;;;;;;;;;;4975234;28;20046;-11
2021/05/27 10:08:25;;;;;;;6.05;4.13;;;;;;;;;;4975524;28;20026;-12
2021/05/27 10:10:51;;;;;;;8.73;4.65;;;;;;;;;;4975289;28;20043;-11
2021/05/27 10:13:20;;;;;;;11.70;6.28;;;;;;;;;;4975590;28;20023;-12
2021/05/27 10:15:46;;;;;;;8.27;4.47;;;;;;;;;;4975302;28;20539;-12
2021/05/27 10:18:15;;;;;;;10.85;5.13;;;;;;;;;;4975449;28;20077;-11
2021/05/27 10:20:41;;;;;;;10.68;6.20;;;;;;;;;;4975586;28;20389;-12
2021/05/27 10:23:07;;;;;;;12.23;6.13;;;;;;;;;;4975225;28;20027;-12
2021/05/27 10:25:32;;;;;;;17.67;4.03;;;;;;;;;;4975426;28;20162;-11
2021/05/27 10:28:00;;;;;;;6.93;4.20;;;;;;;;;;4973500;28;20019;-12
2021/05/27 10:30:26;;;;;;;6.45;3.65;;;;;;;;;;4975115;28;20023;-12
2021/05/27 10:32:55;;;;;;;3.35;2.58;;;;;;;;;;4973984;28;20469;-12
2021/05/27 10:35:20;;;;;;;6.85;2.85;;;;;;;;;;4974793;28;20045;-11
2021/05/27 10:37:46;;;;;;;8.93;4.45;;;;;;;;;;4974957;28;20043;-11
2021/05/27 10:40:11;;;;;;;8.90;3.33;;;;;;;;;;4974765;28;20034;-12
2021/05/27 10:42:55;;;;;;;3.22;2.20;;;;;;;;;;4974811;28;20027;-12
2021/05/27 10:45:20;;;;;;;10.25;3.67;;;;;;;;;;4974779;28;20026;-11
2021/05/27 10:48:04;;;;;;;5.55;3.47;;;;;;;;;;4974993;28;20078;-12
2021/05/27 10:50:53;;;;;;;9.45;5.45;;;;;;;;;;4974940;28;20022;-11
2021/05/27 10:53:43;;;;;;;11.43;4.63;;;;;;;;;;4974589;28;20074;-12
2021/05/27 10:56:10;;;;;;;4.18;3.00;;;;;;;;;;4974637;28;20034;-11
2021/05/27 10:58:48;;;;;;;5.97;2.58;;;;;;;;;;4974482;28;20023;-12
2021/05/27 11:01:28;;;;;;;7.57;3.10;;;;;;;;;;4974469;28;20389;-13
2021/05/27 11:03:54;;;;;;;2.47;1.90;;;;;;;;;;4974392;28;20115;-11
2021/05/27 11:06:20;;;;;;;4.07;2.10;;;;;;;;;;4973169;28;20031;-11
2021/05/27 11:08:46;;;;;;;11.23;3.15;;;;;;;;;;4974423;28;20026;-12
2021/05/27 11:11:30;;;;;;;14.07;4.35;;;;;;;;;;4974128;28;20539;-12
2021/05/27 11:14:15;;;;;;;5.70;3.58;;;;;;;;;;4974090;28;20073;-13
2021/05/27 11:16:59;;;;;;;6.55;3.40;;;;;;;;;;4973961;28;20027;-11
2021/05/27 11:25:06;;;;;;;3.38;2.72;;;;;;;;;;4974271;28;20035;-12
2021/05/27 11:27:32;;;;;;;6.97;2.75;;;;;;;;;;4972719;28;20440;-12
2021/05/27 11:30:16;;;;;;;5.10;1.83;;;;;;;;;;4974016;28;20102;-12
2021/05/27 11:32:42;;;;;;;7.35;3.25;;;;;;;;;;4973859;28;20403;-12
2021/05/27 11:35:07;;;;;;;5.47;2.30;;;;;;;;;;4973732;28;20050;-12
2021/05/27 11:37:36;;;;;;;4.40;2.47;;;;;;;;;;4974173;28;20117;-12
2021/05/27 11:40:04;;;;;;;6.18;3.17;;;;;;;;;;4973878;28;20015;-12
2021/05/27 11:42:30;;;;;;;4.10;3.15;;;;;;;;;;4973977;28;20076;-12
2021/05/27 11:45:02;;;;;;;4.85;2.30;;;;;;;;;;4973821;28;20273;-12
2021/05/27 11:47:28;;;;;;;4.35;3.40;;;;;;;;;;4973726;28;20071;-12
2021/05/27 11:49:59;;;;;;;5.85;2.75;;;;;;;;;;4973751;28;20101;-12
2021/05/27 11:52:25;;;;;;;3.80;2.47;;;;;;;;;;4973582;28;20047;-12
2021/05/27 11:54:52;;;;;;;4.55;2.17;;;;;;;;;;4973736;28;20030;-12
2021/05/27 11:57:18;;;;;;;1.45;1.27;;;;;;;;;;4973536;28;20039;-12
2021/05/27 11:59:43;;;;;;;6.43;3.58;;;;;;;;;;4973913;28;20034;-12
2021/05/27 12:02:10;;;;;;;2.20;2.00;;;;;;;;;;4972278;28;20570;-12
2021/05/27 12:04:35;;;;;;;7.90;3.30;;;;;;;;;;4973528;28;20015;-12
2021/05/27 12:07:05;;;;;;;2.85;2.25;;;;;;;;;;4973807;28;20081;-12
2021/05/27 12:09:33;;;;;;;7.00;3.78;;;;;;;;;;4972317;28;20523;-11
2021/05/27 12:12:19;;;;;;;7.03;2.45;;;;;;;;;;4973307;28;20485;-12
2021/05/27 12:14:50;;;;;;;3.42;1.90;;;;;;;;;;4972346;28;20062;-12
2021/05/27 12:17:17;;;;;;;8.20;2.05;;;;;;;;;;4973627;28;20045;-12
2021/05/27 12:19:49;;;;;;;2.60;1.10;;;;;;;;;;4973524;28;20050;-12
2021/05/27 12:22:14;;;;;;;4.32;2.17;;;;;;;;;;4973372;28;20030;-12
2021/05/27 12:24:40;;;;;;;4.97;3.30;;;;;;;;;;4973636;28;20323;-12
2021/05/27 12:27:05;;;;;;;3.92;2.10;;;;;;;;;;4973350;28;20492;-12
2021/05/27 12:29:31;;;;;;;5.45;3.22;;;;;;;;;;4976617;28;20493;-11
2021/05/27 12:31:56;;;;;;;6.70;1.83;;;;;;;;;;4976907;28;20122;-11
2021/05/27 12:34:22;;;;;;;6.88;3.05;;;;;;;;;;4977187;28;20054;-12
2021/05/27 12:37:06;;;;;;;3.80;2.53;;;;;;;;;;4977075;28;20054;-11
2021/05/27 12:39:36;;;;;;;5.28;4.05;;;;;;;;;;4977057;28;20023;-12
2021/05/27 12:42:03;;;;;;;3.55;2.40;;;;;;;;;;4977014;28;20034;-11
2021/05/27 12:44:41;;;;;;;3.30;2.10;;;;;;;;;;4977006;28;20031;-11
2021/05/27 12:47:14;;;;;;;2.85;1.88;;;;;;;;;;4975667;28;20035;-12
2021/05/27 12:49:40;;;;;;;4.97;1.92;;;;;;;;;;4977224;28;20030;-13
2021/05/27 12:52:05;;;;;;;2.58;1.88;;;;;;;;;;4976740;28;20508;-12
2021/05/27 12:54:31;;;;;;;3.15;2.28;;;;;;;;;;4977315;28;20027;-12
2021/05/27 12:57:00;;;;;;;2.53;1.70;;;;;;;;;;4975504;28;20023;-12
2021/05/27 12:59:26;;;;;;;2.35;1.25;;;;;;;;;;4976767;28;20305;-12
2021/05/27 13:01:56;;;;;;;4.35;2.38;;;;;;;;;;4976931;28;20023;-13
2021/05/27 13:04:22;;;;;;;3.08;2.70;;;;;;;;;;4976745;28;20030;-12
2021/05/27 13:06:47;;;;;;;1.63;1.30;;;;;;;;;;4976607;28;20374;-12
2021/05/27 13:09:15;;;;;;;3.97;2.35;;;;;;;;;;4975604;28;20027;-12
2021/05/27 13:11:45;;;;;;;6.40;3.08;;;;;;;;;;4976714;28;20043;-12
2021/05/27 13:14:12;;;;;;;4.43;2.90;;;;;;;;;;4976513;28;20417;-12
2021/05/27 13:16:37;;;;;;;5.55;2.65;;;;;;;;;;4976402;28;20465;-12
2021/05/27 13:19:04;;;;;;;3.55;2.65;;;;;;;;;;4976328;28;20030;-12
2021/05/27 13:21:37;;;;;;;7.20;2.50;;;;;;;;;;4976599;28;20109;-12
2021/05/27 13:24:16;;;;;;;5.68;2.47;;;;;;;;;;4976474;28;20026;-12
2021/05/27 13:26:41;;;;;;;3.67;2.22;;;;;;;;;;4976555;28;20035;-11
2021/05/27 13:29:07;;;;;;;6.43;3.75;;;;;;;;;;4976011;28;20512;-17
2021/05/27 13:31:36;;;;;;;4.90;2.47;;;;;;;;;;4976038;28;20058;-12
2021/05/27 13:34:01;;;;;;;7.85;2.30;;;;;;;;;;4975860;28;20051;-12
2021/05/27 13:36:27;;;;;;;4.13;2.58;;;;;;;;;;4976439;28;20046;-12
2021/05/27 13:38:52;;;;;;;3.50;2.90;;;;;;;;;;4976380;28;20038;-12
2021/05/27 13:41:18;;;;;;;2.67;2.00;;;;;;;;;;4975259;28;20090;-12
2021/05/27 13:43:43;;;;;;;5.63;2.70;;;;;;;;;;4975899;28;20380;-11
2021/05/27 13:46:09;;;;;;;9.52;2.22;;;;;;;;;;4975865;28;20031;-12
2021/05/27 13:48:35;;;;;;;3.20;2.40;;;;;;;;;;4975902;28;20015;-12
2021/05/27 13:51:01;;;;;;;5.13;2.45;;;;;;;;;;4975941;28;20409;-12
2021/05/27 13:53:26;;;;;;;5.75;3.15;;;;;;;;;;4974791;28;20031;-12
2021/05/27 13:55:55;;;;;;;4.85;2.53;;;;;;;;;;4976046;28;20045;-12
2021/05/27 13:58:21;;;;;;;4.60;2.08;;;;;;;;;;4976168;28;20027;-11
2021/05/27 14:00:47;;;;;;;2.45;2.25;;;;;;;;;;4975664;28;20034;-11
2021/05/27 14:03:14;;;;;;;7.40;3.65;;;;;;;;;;4975775;28;20026;-12
2021/05/27 14:05:39;;;;;;;4.20;2.17;;;;;;;;;;4975782;28;20381;-12
2021/05/27 14:08:06;;;;;;;2.42;2.08;;;;;;;;;;4975503;28;20015;-12
2021/05/27 14:10:31;;;;;;;3.20;2.13;;;;;;;;;;4975435;28;20070;-12
2021/05/27 14:12:57;;;;;;;3.28;1.80;;;;;;;;;;4975433;28;20065;-11
2021/05/27 14:15:22;;;;;;;5.28;2.33;;;;;;;;;;4975684;28;20042;-11
2021/05/27 14:17:48;;;;;;;2.05;1.63;;;;;;;;;;4975292;28;20417;-12
2021/05/27 14:20:14;;;;;;;4.03;2.40;;;;;;;;;;4973979;28;20030;-12
2021/05/27 14:22:40;;;;;;;3.03;2.22;;;;;;;;;;4975412;28;20019;-12
2021/05/27 14:25:06;;;;;;;3.47;2.80;;;;;;;;;;4973671;28;20076;-11
2021/05/27 14:27:32;;;;;;;7.13;2.85;;;;;;;;;;4975171;28;20022;-11
2021/05/27 14:29:57;;;;;;;3.88;2.60;;;;;;;;;;4957850;28;20047;-11
2021/05/27 14:32:23;;;;;;;1.98;1.77;;;;;;;;;;4957542;28;20113;-11
2021/05/27 14:34:48;;;;;;;2.92;1.80;;;;;;;;;;4974795;28;20039;-12
2021/05/27 14:37:14;;;;;;;3.95;2.72;;;;;;;;;;4974876;28;20110;-12
2021/05/27 14:39:40;;;;;;;4.38;2.55;;;;;;;;;;4974877;28;20117;-12
2021/05/27 14:42:06;;;;;;;3.17;2.47;;;;;;;;;;4975039;28;20022;-12
2021/05/27 14:44:32;;;;;;;2.40;2.15;;;;;;;;;;4973664;28;20385;-12
2021/05/27 14:46:58;;;;;;;1.27;1.10;;;;;;;;;;4974702;28;20027;-12
2021/05/27 14:49:24;;;;;;;4.88;2.50;;;;;;;;;;4974814;28;20038;-12
2021/05/27 14:51:49;;;;;;;6.70;1.60;;;;;;;;;;4972621;28;20101;-12
2021/05/27 14:54:16;;;;;;;5.43;2.70;;;;;;;;;;4974830;28;20070;-12
2021/05/27 14:56:41;;;;;;;3.58;2.28;;;;;;;;;;4973395;28;20115;-12
2021/05/27 14:59:07;;;;;;;9.63;2.60;;;;;;;;;;4974783;28;20436;-12
2021/05/27 15:01:32;;;;;;;4.40;2.10;;;;;;;;;;4974508;28;20019;-12